logo
Search for airport 
image banner adimage banner adimage banner ad
image banner ad

EGCE01 - Abbots Bromley

Located in , United Kingdom

ICAO - , IATA -

Data provided by Airmate  

General information

Coordinates: N52°49'3" W1°54'4"
Elevation is 400 feet MSL.
 
View others Airports in England

Operational data

Special qualification required
Current time UTC:
Current local time:
Weather at : EGWC - Cosford ( 34 km )
TAF: TAF EGWC 051317Z 0515/0518 VRB03KT CAVOK
View NOTAMs / SUP AIP / TFR affecting this airport [VIEW]
Communications frequencies: [VIEW]

Runways:

RWY identifierQFULength (ft)Width (ft)SurfaceLDA (ft)
04216582GRASS
22216582GRASS

Airport contact information

Address: United Kingdom

Satellite view of EGCE01